createdAt,value
2023-01-26T00:05:08.959Z,-2.5
2023-01-26T00:10:20.893Z,-2
2023-01-26T00:15:35.770Z,-1.9
2023-01-26T00:20:42.035Z,-1.8
2023-01-26T00:25:54.054Z,-1.6
2023-01-26T00:31:02.956Z,-1.7
2023-01-26T00:36:15.343Z,-2.1
2023-01-26T00:41:25.975Z,-2.3
2023-01-26T00:46:37.009Z,-2.5
2023-01-26T00:51:48.451Z,-2.4
2023-01-26T00:56:59.990Z,-2.3
2023-01-26T01:02:13.421Z,-2.5
2023-01-26T01:12:44.260Z,-2.7
2023-01-26T01:17:53.699Z,-2.6
2023-01-26T01:23:06.036Z,-2.6
2023-01-26T01:33:39.023Z,-2.5
2023-01-26T01:38:47.990Z,-2.5
2023-01-26T01:44:03.574Z,-2.5
2023-01-26T01:49:15.747Z,-2.4
2023-01-26T01:54:26.014Z,-2.7
2023-01-26T01:59:36.935Z,-3
2023-01-26T02:04:48.575Z,-3
2023-01-26T02:09:59.790Z,-3.1
2023-01-26T02:20:43.819Z,-2.9
2023-01-26T02:25:54.981Z,-2.9
2023-01-26T02:31:09.687Z,-2.9
2023-01-26T02:36:20.545Z,-2.9
2023-01-26T02:41:31.792Z,-3.1
2023-01-26T02:46:46.851Z,-3.1
2023-01-26T02:51:58.441Z,-3
2023-01-26T02:57:04.942Z,-3.2
2023-01-26T03:02:16.814Z,-3.1
2023-01-26T03:07:29.051Z,-3.1
2023-01-26T03:12:40.110Z,-3.1
2023-01-26T03:17:52.169Z,-2.9
2023-01-26T03:23:03.687Z,-2.7
2023-01-26T03:28:15.472Z,-3.2
2023-01-26T03:33:27.353Z,-3.4
2023-01-26T03:43:58.994Z,-3.3
2023-01-26T03:49:11.489Z,-3.3
2023-01-26T03:54:22.318Z,-3.5
2023-01-26T03:59:32.597Z,-3.7
2023-01-26T04:04:43.370Z,-3.8
2023-01-26T04:09:54.603Z,-3.8
2023-01-26T04:15:06.045Z,-3.7
2023-01-26T04:20:22.251Z,-3.7
2023-01-26T04:25:34.170Z,-3.6
2023-01-26T04:41:27.100Z,-3.3
2023-01-26T04:46:38.626Z,-3.2
2023-01-26T04:51:51.011Z,-3.3
2023-01-26T04:57:06.360Z,-3.3
2023-01-26T05:02:18.724Z,-3.4
2023-01-26T05:07:34.925Z,-3.4
2023-01-26T05:12:45.165Z,-3.1
2023-01-26T05:17:57.110Z,-3
2023-01-26T05:23:09.437Z,-3
2023-01-26T05:28:20.890Z,-3
2023-01-26T05:33:32.922Z,-3.3
2023-01-26T05:38:42.681Z,-3.2
2023-01-26T05:49:15.205Z,-3.4
2023-01-26T06:10:43.732Z,-3.4
2023-01-26T06:26:53.608Z,-3.3
2023-01-26T06:32:05.324Z,-3.3
2023-01-26T06:37:21.419Z,-3.3
2023-01-26T06:42:37.471Z,-3.3
2023-01-26T06:47:52.488Z,-3.3
2023-01-26T06:53:01.273Z,-3.3
2023-01-26T07:09:11.838Z,-3.3
2023-01-26T07:19:41.205Z,-3.5
2023-01-26T07:30:26.598Z,-3.5
2023-01-26T07:35:43.741Z,-3.5
2023-01-26T07:40:50.329Z,-3.4
2023-01-26T07:46:05.565Z,-3.4
2023-01-26T07:51:16.961Z,-3.7
2023-01-26T08:23:16.018Z,-3.7
2023-01-26T08:28:28.453Z,-3.9
2023-01-26T08:33:43.338Z,-3.9
2023-01-26T08:38:55.175Z,-3.8
2023-01-26T08:49:40.434Z,-3.8
2023-01-26T08:54:50.935Z,-3.6
2023-01-26T09:00:04.492Z,-3.5
2023-01-26T09:05:12.504Z,-3.8
2023-01-26T09:31:56.458Z,-3.5
2023-01-26T09:48:11.091Z,-3.5
2023-01-26T09:53:21.016Z,-2.8
2023-01-26T09:58:34.587Z,-2.8
2023-01-26T10:03:45.772Z,-2.4
2023-01-26T10:09:03.775Z,-2.4
2023-01-26T10:14:20.628Z,-2.4
2023-01-26T10:19:34.631Z,-2.4
2023-01-26T10:24:51.058Z,-2.3
2023-01-26T10:30:08.724Z,-2.3
2023-01-26T10:40:51.448Z,-2.3
2023-01-26T10:46:04.677Z,-2.2
2023-01-26T10:51:19.025Z,-2.2
2023-01-26T10:56:38.002Z,-2.2
2023-01-26T11:01:47.992Z,-2.1
2023-01-26T11:06:59.933Z,-2.1
2023-01-26T11:12:15.494Z,-2.1
2023-01-26T11:17:32.097Z,-2.1
2023-01-26T11:22:42.192Z,-1.9
2023-01-26T11:38:34.279Z,-1.6
2023-01-26T11:43:53.621Z,-1.6
2023-01-26T11:49:07.511Z,-1.6
2023-01-26T11:59:43.920Z,-1.6
2023-01-26T12:04:59.208Z,-1.8
2023-01-26T12:10:13.248Z,-1.8
2023-01-26T12:15:29.802Z,-1.8
2023-01-26T12:20:42.490Z,-1.1
2023-01-26T12:31:23.962Z,-1.1
2023-01-26T12:52:47.747Z,-1.1
2023-01-26T12:58:00.097Z,-1.2
2023-01-26T13:08:32.242Z,-1.4
2023-01-26T13:13:44.295Z,-1.6
2023-01-26T13:24:16.631Z,-1.6
2023-01-26T13:40:26.439Z,-1.6
2023-01-26T13:45:38.538Z,-1.7
2023-01-26T13:50:53.931Z,-1.7
2023-01-26T14:01:27.540Z,-2
2023-01-26T14:22:46.677Z,-2.6
2023-01-26T14:27:58.510Z,-2.4
2023-01-26T14:33:11.078Z,-2.4
2023-01-26T14:38:25.004Z,-2.4
2023-01-26T14:54:16.287Z,-2.6
2023-01-26T15:05:01.667Z,-2.6
2023-01-26T15:10:14.969Z,-2.6
2023-01-26T15:15:25.954Z,-2.5
2023-01-26T15:26:06.941Z,-2.5
2023-01-26T15:31:16.335Z,-2.5
2023-01-26T15:36:32.012Z,-2.5
2023-01-26T15:41:48.512Z,-2.5
2023-01-26T15:47:00.802Z,-2.4
2023-01-26T15:52:19.742Z,-2.4
2023-01-26T15:57:35.243Z,-2.4
2023-01-26T16:02:52.524Z,-2.4
2023-01-26T16:08:05.959Z,-2.4
2023-01-26T16:13:22.013Z,-2.5
2023-01-26T16:18:33.668Z,-2.6
2023-01-26T16:45:13.751Z,-2.6
2023-01-26T16:50:24.415Z,-2.6
2023-01-26T17:01:08.439Z,-2.6
2023-01-26T17:06:21.316Z,-2.6
2023-01-26T17:17:07.566Z,-2.6
2023-01-26T17:22:16.125Z,-2.5
2023-01-26T17:38:21.781Z,-2.5
2023-01-26T17:43:32.137Z,-2.5
2023-01-26T17:59:29.806Z,-2.5
2023-01-26T18:04:42.501Z,-2.6
2023-01-26T18:26:22.302Z,-2.6
2023-01-26T18:47:50.032Z,-2.5
2023-01-26T19:03:54.466Z,-2.5
2023-01-26T19:09:01.601Z,-2.6
2023-01-26T19:24:59.406Z,-2.6
2023-01-26T19:30:09.469Z,-3
2023-01-26T19:51:39.476Z,-3
2023-01-26T19:56:52.243Z,-2.8
2023-01-26T20:07:37.430Z,-2.8
2023-01-26T20:12:46.168Z,-2.9
2023-01-26T20:29:00.277Z,-2.9
2023-01-26T20:34:08.688Z,-2.9
2023-01-26T20:44:45.360Z,-2.9
2023-01-26T20:49:59.040Z,-2.9
2023-01-26T20:55:38.243Z,-2.9
2023-01-26T21:00:52.640Z,-3
2023-01-26T21:11:34.505Z,-3.1
2023-01-26T21:22:17.575Z,-3.1
2023-01-26T21:27:34.039Z,-3.1
2023-01-26T21:32:45.467Z,-3.1
2023-01-26T21:44:39.585Z,-3.1
2023-01-26T21:55:16.149Z,-3.1
2023-01-26T22:00:26.839Z,-3.3
2023-01-26T22:05:40.347Z,-3.3
2023-01-26T22:10:54.238Z,-3.3
2023-01-26T22:21:43.920Z,-3.3
2023-01-26T22:26:58.633Z,-3.3
2023-01-26T22:32:10.034Z,-3.2
2023-01-26T22:42:53.591Z,-3.2
2023-01-26T22:48:11.374Z,-3.2
2023-01-26T22:53:22.115Z,-3.2
2023-01-26T22:59:00.787Z,-3.2
2023-01-26T23:04:00.219Z,-3.2
2023-01-26T23:09:20.758Z,-3.2
2023-01-26T23:14:44.695Z,-3.3
2023-01-26T23:20:13.063Z,-3.3
2023-01-26T23:25:27.414Z,-3.3
2023-01-26T23:46:43.524Z,-3.3
2023-01-26T23:51:57.371Z,-3.3
2023-01-26T23:57:09.506Z,-3.3
